sensor_id;sensor_type;location;lat;lon;timestamp;pressure;altitude;pressure_sealevel;temperature;humidity
75594;BME280;64176;49.156;7.810;2023-05-02T00:00:44;99349.56;;;8.21;87.22
75594;BME280;64176;49.156;7.810;2023-05-02T00:03:28;99344.50;;;8.26;86.99
75594;BME280;64176;49.156;7.810;2023-05-02T00:06:12;99351.06;;;8.09;87.85
75594;BME280;64176;49.156;7.810;2023-05-02T00:08:56;99346.94;;;8.18;87.18
75594;BME280;64176;49.156;7.810;2023-05-02T00:11:43;99342.53;;;8.10;87.73
75594;BME280;64176;49.156;7.810;2023-05-02T00:14:27;99350.38;;;8.16;87.52
75594;BME280;64176;49.156;7.810;2023-05-02T00:17:20;99350.84;;;7.93;88.13
75594;BME280;64176;49.156;7.810;2023-05-02T00:20:08;99361.53;;;8.18;87.10
75594;BME280;64176;49.156;7.810;2023-05-02T00:22:52;99361.50;;;8.15;87.49
75594;BME280;64176;49.156;7.810;2023-05-02T00:25:43;99361.47;;;8.13;87.65
75594;BME280;64176;49.156;7.810;2023-05-02T00:28:28;99354.13;;;7.86;87.34
75594;BME280;64176;49.156;7.810;2023-05-02T00:31:18;99353.16;;;7.80;87.23
75594;BME280;64176;49.156;7.810;2023-05-02T00:34:02;99364.47;;;7.89;87.39
75594;BME280;64176;49.156;7.810;2023-05-02T00:36:47;99355.06;;;7.90;87.35
75594;BME280;64176;49.156;7.810;2023-05-02T00:39:35;99358.94;;;7.68;87.97
75594;BME280;64176;49.156;7.810;2023-05-02T00:42:19;99357.94;;;7.60;88.52
75594;BME280;64176;49.156;7.810;2023-05-02T00:45:04;99364.00;;;7.63;88.41
75594;BME280;64176;49.156;7.810;2023-05-02T00:47:49;99359.97;;;7.78;87.30
75594;BME280;64176;49.156;7.810;2023-05-02T00:50:43;99360.31;;;7.49;88.47
75594;BME280;64176;49.156;7.810;2023-05-02T00:53:30;99360.09;;;7.39;89.16
75594;BME280;64176;49.156;7.810;2023-05-02T00:56:16;99356.00;;;7.48;88.84
75594;BME280;64176;49.156;7.810;2023-05-02T00:59:00;99363.72;;;7.48;88.21
75594;BME280;64176;49.156;7.810;2023-05-02T01:01:56;99361.13;;;7.47;88.04
75594;BME280;64176;49.156;7.810;2023-05-02T01:08:02;99367.66;;;7.31;88.45
75594;BME280;64176;49.156;7.810;2023-05-02T01:11:09;99369.84;;;7.13;89.03
75594;BME280;64176;49.156;7.810;2023-05-02T01:13:58;99375.59;;;7.43;88.66
75594;BME280;64176;49.156;7.810;2023-05-02T01:16:45;99370.59;;;7.49;87.74
75594;BME280;64176;49.156;7.810;2023-05-02T01:19:37;99375.81;;;7.54;87.18
75594;BME280;64176;49.156;7.810;2023-05-02T01:22:24;99387.00;;;7.56;86.46
75594;BME280;64176;49.156;7.810;2023-05-02T01:31:17;99391.78;;;7.38;87.47
75594;BME280;64176;49.156;7.810;2023-05-02T01:34:03;99390.75;;;7.29;87.58
75594;BME280;64176;49.156;7.810;2023-05-02T01:36:49;99397.41;;;7.20;87.94
75594;BME280;64176;49.156;7.810;2023-05-02T01:39:34;99402.69;;;7.26;87.75
75594;BME280;64176;49.156;7.810;2023-05-02T01:42:24;99401.84;;;7.27;87.42
75594;BME280;64176;49.156;7.810;2023-05-02T01:45:11;99403.53;;;7.25;87.94
75594;BME280;64176;49.156;7.810;2023-05-02T01:47:56;99408.50;;;7.17;87.95
75594;BME280;64176;49.156;7.810;2023-05-02T01:50:44;99403.25;;;6.74;89.18
75594;BME280;64176;49.156;7.810;2023-05-02T01:53:33;99412.03;;;6.85;89.33
75594;BME280;64176;49.156;7.810;2023-05-02T01:56:21;99407.13;;;6.94;89.17
75594;BME280;64176;49.156;7.810;2023-05-02T01:59:13;99392.59;;;6.96;88.41
75594;BME280;64176;49.156;7.810;2023-05-02T02:02:00;99410.69;;;7.01;88.30
75594;BME280;64176;49.156;7.810;2023-05-02T02:04:46;99426.72;;;6.89;88.56
75594;BME280;64176;49.156;7.810;2023-05-02T02:07:31;99388.09;;;6.84;87.21
75594;BME280;64176;49.156;7.810;2023-05-02T02:10:18;99422.41;;;6.88;87.38
75594;BME280;64176;49.156;7.810;2023-05-02T02:13:07;99425.38;;;6.69;88.79
75594;BME280;64176;49.156;7.810;2023-05-02T02:16:02;99437.66;;;6.80;88.69
75594;BME280;64176;49.156;7.810;2023-05-02T02:18:47;99431.94;;;6.56;88.84
75594;BME280;64176;49.156;7.810;2023-05-02T02:21:33;99431.59;;;6.78;88.76
75594;BME280;64176;49.156;7.810;2023-05-02T02:24:21;99447.41;;;6.95;88.23
75594;BME280;64176;49.156;7.810;2023-05-02T02:27:06;99450.38;;;6.76;88.05
75594;BME280;64176;49.156;7.810;2023-05-02T02:29:53;99449.50;;;6.39;89.76
75594;BME280;64176;49.156;7.810;2023-05-02T02:32:37;99448.97;;;6.54;89.82
75594;BME280;64176;49.156;7.810;2023-05-02T02:35:21;99460.56;;;6.71;89.20
75594;BME280;64176;49.156;7.810;2023-05-02T02:41:23;99453.31;;;6.91;87.94
75594;BME280;64176;49.156;7.810;2023-05-02T02:47:22;99462.88;;;6.61;89.48
75594;BME280;64176;49.156;7.810;2023-05-02T02:53:23;99471.00;;;6.79;88.22
75594;BME280;64176;49.156;7.810;2023-05-02T02:56:37;99467.59;;;6.80;87.83
75594;BME280;64176;49.156;7.810;2023-05-02T02:59:26;99466.09;;;6.53;89.23
75594;BME280;64176;49.156;7.810;2023-05-02T03:02:16;99470.00;;;6.38;89.77
75594;BME280;64176;49.156;7.810;2023-05-02T03:05:03;99457.50;;;6.53;89.63
75594;BME280;64176;49.156;7.810;2023-05-02T03:07:48;99471.31;;;6.56;88.99
75594;BME280;64176;49.156;7.810;2023-05-02T03:10:32;99478.25;;;6.61;88.68
75594;BME280;64176;49.156;7.810;2023-05-02T03:13:19;99480.56;;;6.50;88.85
75594;BME280;64176;49.156;7.810;2023-05-02T03:19:05;99488.22;;;6.48;89.51
75594;BME280;64176;49.156;7.810;2023-05-02T03:21:52;99480.56;;;6.50;90.24
75594;BME280;64176;49.156;7.810;2023-05-02T03:24:37;99493.09;;;6.38;89.01
75594;BME280;64176;49.156;7.810;2023-05-02T03:27:25;99486.00;;;5.98;90.08
75594;BME280;64176;49.156;7.810;2023-05-02T03:30:10;99495.16;;;6.19;89.96
75594;BME280;64176;49.156;7.810;2023-05-02T03:32:56;99499.00;;;6.35;89.05
75594;BME280;64176;49.156;7.810;2023-05-02T03:35:41;99498.59;;;6.51;88.76
75594;BME280;64176;49.156;7.810;2023-05-02T03:38:28;99488.53;;;6.61;88.24
75594;BME280;64176;49.156;7.810;2023-05-02T03:41:13;99506.50;;;6.61;89.46
75594;BME280;64176;49.156;7.810;2023-05-02T03:44:01;99503.34;;;6.71;88.40
75594;BME280;64176;49.156;7.810;2023-05-02T03:46:46;99512.69;;;6.69;89.06
75594;BME280;64176;49.156;7.810;2023-05-02T03:49:33;99510.28;;;6.75;88.36
75594;BME280;64176;49.156;7.810;2023-05-02T03:52:17;99517.09;;;6.74;88.31
75594;BME280;64176;49.156;7.810;2023-05-02T03:55:02;99524.44;;;6.59;88.67
75594;BME280;64176;49.156;7.810;2023-05-02T03:57:48;99516.47;;;6.48;89.03
75594;BME280;64176;49.156;7.810;2023-05-02T04:00:35;99523.31;;;6.48;90.10
75594;BME280;64176;49.156;7.810;2023-05-02T04:03:25;99523.19;;;6.78;88.86
75594;BME280;64176;49.156;7.810;2023-05-02T04:06:12;99531.28;;;6.58;89.80
75594;BME280;64176;49.156;7.810;2023-05-02T04:08:59;99531.69;;;6.74;89.45
75594;BME280;64176;49.156;7.810;2023-05-02T04:11:53;99529.25;;;6.80;88.98
75594;BME280;64176;49.156;7.810;2023-05-02T04:14:37;99547.09;;;6.75;90.06
75594;BME280;64176;49.156;7.810;2023-05-02T04:17:25;99539.94;;;6.64;90.57
75594;BME280;64176;49.156;7.810;2023-05-02T04:20:10;99545.63;;;6.85;90.61
75594;BME280;64176;49.156;7.810;2023-05-02T04:22:57;99552.66;;;6.92;89.92
75594;BME280;64176;49.156;7.810;2023-05-02T04:25:53;99523.38;;;6.84;89.60
75594;BME280;64176;49.156;7.810;2023-05-02T04:28:40;99551.09;;;6.99;89.60
75594;BME280;64176;49.156;7.810;2023-05-02T04:31:25;99552.75;;;6.95;89.47
75594;BME280;64176;49.156;7.810;2023-05-02T04:34:10;99561.03;;;6.85;90.29
75594;BME280;64176;49.156;7.810;2023-05-02T04:37:00;99554.78;;;6.74;90.29
75594;BME280;64176;49.156;7.810;2023-05-02T04:39:45;99558.94;;;7.03;89.78
75594;BME280;64176;49.156;7.810;2023-05-02T04:42:41;99566.44;;;6.94;90.00
75594;BME280;64176;49.156;7.810;2023-05-02T04:45:31;99557.53;;;6.81;90.51
75594;BME280;64176;49.156;7.810;2023-05-02T04:48:16;99555.16;;;6.89;90.29
75594;BME280;64176;49.156;7.810;2023-05-02T04:51:00;99569.63;;;6.85;90.73
75594;BME280;64176;49.156;7.810;2023-05-02T04:53:46;99562.34;;;7.02;90.02
75594;BME280;64176;49.156;7.810;2023-05-02T04:56:37;99581.06;;;6.98;90.37
75594;BME280;64176;49.156;7.810;2023-05-02T04:59:21;99568.97;;;6.92;90.31
75594;BME280;64176;49.156;7.810;2023-05-02T05:02:06;99576.94;;;7.03;89.69
75594;BME280;64176;49.156;7.810;2023-05-02T05:04:51;99591.56;;;7.06;89.67
75594;BME280;64176;49.156;7.810;2023-05-02T05:07:36;99591.44;;;7.01;89.37
75594;BME280;64176;49.156;7.810;2023-05-02T05:10:21;99592.59;;;7.14;89.25
75594;BME280;64176;49.156;7.810;2023-05-02T05:13:05;99602.41;;;6.94;90.60
75594;BME280;64176;49.156;7.810;2023-05-02T05:15:52;99598.66;;;7.16;89.51
75594;BME280;64176;49.156;7.810;2023-05-02T05:18:39;99614.44;;;7.31;89.20
75594;BME280;64176;49.156;7.810;2023-05-02T05:21:31;99609.41;;;7.36;88.39
75594;BME280;64176;49.156;7.810;2023-05-02T05:24:19;99615.50;;;7.39;88.62
75594;BME280;64176;49.156;7.810;2023-05-02T05:27:04;99617.22;;;7.39;88.35
75594;BME280;64176;49.156;7.810;2023-05-02T05:29:48;99619.94;;;7.46;88.52
75594;BME280;64176;49.156;7.810;2023-05-02T05:32:33;99602.91;;;7.50;88.17
75594;BME280;64176;49.156;7.810;2023-05-02T05:35:18;99620.44;;;7.31;88.77
75594;BME280;64176;49.156;7.810;2023-05-02T05:38:03;99629.50;;;7.52;88.59
75594;BME280;64176;49.156;7.810;2023-05-02T05:40:50;99629.69;;;7.59;88.27
75594;BME280;64176;49.156;7.810;2023-05-02T05:43:35;99630.03;;;7.73;87.75
75594;BME280;64176;49.156;7.810;2023-05-02T05:46:20;99629.38;;;7.83;86.95
75594;BME280;64176;49.156;7.810;2023-05-02T05:49:04;99637.75;;;7.73;87.50
75594;BME280;64176;49.156;7.810;2023-05-02T05:51:48;99633.59;;;7.80;87.64
75594;BME280;64176;49.156;7.810;2023-05-02T05:54:35;99641.22;;;8.14;86.69
75594;BME280;64176;49.156;7.810;2023-05-02T05:57:19;99635.50;;;8.27;86.06
75594;BME280;64176;49.156;7.810;2023-05-02T06:00:05;99647.34;;;8.21;86.37
75594;BME280;64176;49.156;7.810;2023-05-02T06:02:59;99629.28;;;8.19;85.95
75594;BME280;64176;49.156;7.810;2023-05-02T06:05:47;99648.09;;;8.56;85.53
75594;BME280;64176;49.156;7.810;2023-05-02T06:08:31;99656.03;;;8.66;84.85
75594;BME280;64176;49.156;7.810;2023-05-02T06:11:15;99661.06;;;8.59;85.83
75594;BME280;64176;49.156;7.810;2023-05-02T06:13:59;99660.47;;;8.73;85.34
75594;BME280;64176;49.156;7.810;2023-05-02T06:16:44;99661.09;;;9.07;84.44
75594;BME280;64176;49.156;7.810;2023-05-02T06:19:29;99643.00;;;9.04;84.57
75594;BME280;64176;49.156;7.810;2023-05-02T06:22:14;99671.69;;;9.22;83.96
75594;BME280;64176;49.156;7.810;2023-05-02T06:24:57;99669.53;;;9.46;83.19
75594;BME280;64176;49.156;7.810;2023-05-02T06:27:42;99665.31;;;9.53;83.15
75594;BME280;64176;49.156;7.810;2023-05-02T06:30:26;99669.72;;;9.59;83.28
75594;BME280;64176;49.156;7.810;2023-05-02T06:33:12;99677.84;;;9.83;82.59
75594;BME280;64176;49.156;7.810;2023-05-02T06:35:56;99684.38;;;9.63;83.42
75594;BME280;64176;49.156;7.810;2023-05-02T06:38:43;99678.16;;;9.48;84.13
75594;BME280;64176;49.156;7.810;2023-05-02T06:41:26;99670.63;;;10.87;79.83
75594;BME280;64176;49.156;7.810;2023-05-02T06:44:13;99679.44;;;12.09;74.84
75594;BME280;64176;49.156;7.810;2023-05-02T06:46:57;99676.19;;;12.48;72.55
75594;BME280;64176;49.156;7.810;2023-05-02T06:49:43;99679.69;;;12.59;71.74
75594;BME280;64176;49.156;7.810;2023-05-02T06:52:28;99674.69;;;13.11;70.61
75594;BME280;64176;49.156;7.810;2023-05-02T06:55:14;99672.94;;;13.10;70.43
75594;BME280;64176;49.156;7.810;2023-05-02T06:57:58;99678.16;;;13.15;70.46
75594;BME280;64176;49.156;7.810;2023-05-02T07:00:42;99679.06;;;13.29;70.18
75594;BME280;64176;49.156;7.810;2023-05-02T07:03:26;99676.50;;;13.45;69.12
75594;BME280;64176;49.156;7.810;2023-05-02T07:06:13;99666.97;;;13.76;68.61
75594;BME280;64176;49.156;7.810;2023-05-02T07:08:56;99676.47;;;13.65;68.95
75594;BME280;64176;49.156;7.810;2023-05-02T07:11:41;99680.81;;;13.25;70.10
75594;BME280;64176;49.156;7.810;2023-05-02T07:14:25;99679.06;;;13.50;69.15
75594;BME280;64176;49.156;7.810;2023-05-02T07:17:09;99675.59;;;13.22;70.01
75594;BME280;64176;49.156;7.810;2023-05-02T07:19:53;99679.06;;;13.59;69.35
75594;BME280;64176;49.156;7.810;2023-05-02T07:22:37;99684.28;;;13.55;68.89
75594;BME280;64176;49.156;7.810;2023-05-02T07:25:21;99680.78;;;13.86;68.25
75594;BME280;64176;49.156;7.810;2023-05-02T07:28:05;99679.94;;;13.82;67.61
75594;BME280;64176;49.156;7.810;2023-05-02T07:30:49;99680.78;;;13.97;68.47
75594;BME280;64176;49.156;7.810;2023-05-02T07:33:35;99689.44;;;13.70;69.40
75594;BME280;64176;49.156;7.810;2023-05-02T07:36:19;99678.97;;;14.29;67.98
75594;BME280;64176;49.156;7.810;2023-05-02T07:39:06;99685.97;;;14.03;67.70
75594;BME280;64176;49.156;7.810;2023-05-02T07:41:51;99686.88;;;13.88;67.94
75594;BME280;64176;49.156;7.810;2023-05-02T07:44:35;99692.88;;;14.14;66.34
75594;BME280;64176;49.156;7.810;2023-05-02T07:47:19;99684.09;;;14.66;65.79
75594;BME280;64176;49.156;7.810;2023-05-02T07:50:04;99690.28;;;14.20;66.04
75594;BME280;64176;49.156;7.810;2023-05-02T07:52:49;99691.19;;;13.84;67.35
75594;BME280;64176;49.156;7.810;2023-05-02T07:55:33;99689.47;;;13.53;68.63
75594;BME280;64176;49.156;7.810;2023-05-02T07:58:17;99692.91;;;13.51;68.95
75594;BME280;64176;49.156;7.810;2023-05-02T08:01:01;99703.28;;;13.38;69.64
75594;BME280;64176;49.156;7.810;2023-05-02T08:03:48;99711.06;;;13.38;69.26
75594;BME280;64176;49.156;7.810;2023-05-02T08:06:32;99706.75;;;13.37;68.47
75594;BME280;64176;49.156;7.810;2023-05-02T08:09:16;99705.00;;;13.26;68.01
75594;BME280;64176;49.156;7.810;2023-05-02T08:12:00;99706.78;;;13.36;68.14
75594;BME280;64176;49.156;7.810;2023-05-02T08:14:48;99711.09;;;13.41;68.24
75594;BME280;64176;49.156;7.810;2023-05-02T08:17:32;99700.69;;;13.31;67.61
75594;BME280;64176;49.156;7.810;2023-05-02T08:20:16;99711.06;;;13.19;67.38
75594;BME280;64176;49.156;7.810;2023-05-02T08:23:00;99715.44;;;13.44;67.08
75594;BME280;64176;49.156;7.810;2023-05-02T08:25:47;99713.72;;;13.64;65.76
75594;BME280;64176;49.156;7.810;2023-05-02T08:28:32;99718.06;;;13.80;66.32
75594;BME280;64176;49.156;7.810;2023-05-02T08:31:16;99710.25;;;13.76;66.19
75594;BME280;64176;49.156;7.810;2023-05-02T08:34:00;99721.50;;;13.85;66.93
75594;BME280;64176;49.156;7.810;2023-05-02T08:36:45;99713.72;;;14.02;65.08
75594;BME280;64176;49.156;7.810;2023-05-02T08:39:31;99717.16;;;14.04;65.22
75594;BME280;64176;49.156;7.810;2023-05-02T08:42:15;99711.97;;;14.00;65.50
75594;BME280;64176;49.156;7.810;2023-05-02T08:45:01;99730.16;;;14.13;65.12
75594;BME280;64176;49.156;7.810;2023-05-02T08:47:45;99724.06;;;14.45;64.15
75594;BME280;64176;49.156;7.810;2023-05-02T08:50:36;99723.06;;;14.72;63.90
75594;BME280;64176;49.156;7.810;2023-05-02T08:53:21;99727.44;;;14.62;63.52
75594;BME280;64176;49.156;7.810;2023-05-02T08:56:08;99729.22;;;14.48;63.31
75594;BME280;64176;49.156;7.810;2023-05-02T08:58:53;99724.81;;;14.77;61.61
75594;BME280;64176;49.156;7.810;2023-05-02T09:01:40;99724.81;;;14.79;61.75
75594;BME280;64176;49.156;7.810;2023-05-02T09:04:29;99737.94;;;14.47;63.24
75594;BME280;64176;49.156;7.810;2023-05-02T09:07:14;99729.22;;;14.57;63.02
75594;BME280;64176;49.156;7.810;2023-05-02T09:09:58;99729.19;;;14.65;62.26
75594;BME280;64176;49.156;7.810;2023-05-02T09:12:42;99716.19;;;14.68;62.70
75594;BME280;64176;49.156;7.810;2023-05-02T09:15:26;99734.44;;;14.52;61.73
75594;BME280;64176;49.156;7.810;2023-05-02T09:18:18;99735.31;;;14.32;62.38
75594;BME280;64176;49.156;7.810;2023-05-02T09:21:04;99741.34;;;14.37;61.93
75594;BME280;64176;49.156;7.810;2023-05-02T09:23:56;99740.50;;;14.29;62.62
75594;BME280;64176;49.156;7.810;2023-05-02T09:26:42;99731.88;;;14.04;62.30
75594;BME280;64176;49.156;7.810;2023-05-02T09:29:38;99733.56;;;14.29;61.95
75594;BME280;64176;49.156;7.810;2023-05-02T09:32:43;99725.78;;;14.32;60.21
75594;BME280;64176;49.156;7.810;2023-05-02T09:35:28;99734.41;;;14.39;59.77
75594;BME280;64176;49.156;7.810;2023-05-02T09:38:18;99738.78;;;14.43;59.84
75594;BME280;64176;49.156;7.810;2023-05-02T09:41:04;99743.13;;;14.44;60.19
75594;BME280;64176;49.156;7.810;2023-05-02T09:43:54;99738.78;;;14.17;60.03
75594;BME280;64176;49.156;7.810;2023-05-02T09:46:49;99751.75;;;14.52;59.75
75594;BME280;64176;49.156;7.810;2023-05-02T09:49:42;99739.56;;;14.72;59.77
75594;BME280;64176;49.156;7.810;2023-05-02T09:52:30;99750.03;;;14.51;59.53
75594;BME280;64176;49.156;7.810;2023-05-02T09:55:20;99748.31;;;14.32;60.62
75594;BME280;64176;49.156;7.810;2023-05-02T09:58:19;99759.59;;;14.09;61.33
75594;BME280;64176;49.156;7.810;2023-05-02T10:01:04;99766.53;;;14.07;61.80
75594;BME280;64176;49.156;7.810;2023-05-02T10:03:50;99762.22;;;13.77;61.66
75594;BME280;64176;49.156;7.810;2023-05-02T10:06:37;99763.94;;;13.83;62.57
75594;BME280;64176;49.156;7.810;2023-05-02T10:09:21;99758.72;;;14.03;62.31
75594;BME280;64176;49.156;7.810;2023-05-02T10:12:05;99778.66;;;14.10;61.69
75594;BME280;64176;49.156;7.810;2023-05-02T10:14:56;99764.78;;;14.17;60.65
75594;BME280;64176;49.156;7.810;2023-05-02T10:17:49;99769.13;;;14.15;61.30
75594;BME280;64176;49.156;7.810;2023-05-02T10:20:36;99772.56;;;14.29;60.59
75594;BME280;64176;49.156;7.810;2023-05-02T10:23:26;99770.00;;;14.46;60.29
75594;BME280;64176;49.156;7.810;2023-05-02T10:26:15;99758.69;;;14.50;57.97
75594;BME280;64176;49.156;7.810;2023-05-02T10:28:59;99764.75;;;14.60;57.57
75594;BME280;64176;49.156;7.810;2023-05-02T10:31:44;99760.41;;;14.68;57.79
75594;BME280;64176;49.156;7.810;2023-05-02T10:34:31;99760.44;;;14.51;58.50
75594;BME280;64176;49.156;7.810;2023-05-02T10:37:15;99770.84;;;14.52;58.56
75594;BME280;64176;49.156;7.810;2023-05-02T10:40:00;99760.47;;;14.40;59.08
75594;BME280;64176;49.156;7.810;2023-05-02T10:42:48;99773.44;;;14.28;59.84
75594;BME280;64176;49.156;7.810;2023-05-02T10:45:36;99765.66;;;14.20;59.40
75594;BME280;64176;49.156;7.810;2023-05-02T10:48:24;99770.84;;;14.33;59.49
75594;BME280;64176;49.156;7.810;2023-05-02T10:51:09;99770.84;;;14.57;59.09
75594;BME280;64176;49.156;7.810;2023-05-02T10:59:45;99766.53;;;14.42;58.72
75594;BME280;64176;49.156;7.810;2023-05-02T11:05:14;99769.94;;;14.60;57.74
75594;BME280;64176;49.156;7.810;2023-05-02T11:11:36;99773.41;;;14.63;57.31
75594;BME280;64176;49.156;7.810;2023-05-02T11:17:08;99762.09;;;14.70;56.11
75594;BME280;64176;49.156;7.810;2023-05-02T11:22:41;99764.63;;;14.94;55.31
75594;BME280;64176;49.156;7.810;2023-05-02T11:34:11;99758.63;;;14.79;56.92
75594;BME280;64176;49.156;7.810;2023-05-02T11:36:55;99764.75;;;14.58;57.48
75594;BME280;64176;49.156;7.810;2023-05-02T11:39:42;99765.63;;;14.57;57.46
75594;BME280;64176;49.156;7.810;2023-05-02T11:42:29;99771.72;;;14.57;56.83
75594;BME280;64176;49.156;7.810;2023-05-02T11:45:14;99754.97;;;15.18;53.88
75594;BME280;64176;49.156;7.810;2023-05-02T11:48:01;99746.16;;;15.46;53.24
75594;BME280;64176;49.156;7.810;2023-05-02T11:50:51;99737.31;;;15.70;53.10
75594;BME280;64176;49.156;7.810;2023-05-02T11:53:39;99739.88;;;15.76;51.28
75594;BME280;64176;49.156;7.810;2023-05-02T11:56:26;99739.00;;;15.76;51.27
75594;BME280;64176;49.156;7.810;2023-05-02T11:59:11;99737.03;;;16.03;51.06
75594;BME280;64176;49.156;7.810;2023-05-02T12:01:55;99728.69;;;16.55;49.66
75594;BME280;64176;49.156;7.810;2023-05-02T12:04:41;99738.03;;;15.89;49.14
75594;BME280;64176;49.156;7.810;2023-05-02T12:07:46;99747.34;;;16.17;49.23
75594;BME280;64176;49.156;7.810;2023-05-02T12:10:35;99733.28;;;16.33;49.21
75594;BME280;64176;49.156;7.810;2023-05-02T12:13:22;99741.38;;;16.05;49.23
75594;BME280;64176;49.156;7.810;2023-05-02T12:16:08;99741.88;;;16.45;48.72
75594;BME280;64176;49.156;7.810;2023-05-02T12:18:52;99734.72;;;16.60;48.23
75594;BME280;64176;49.156;7.810;2023-05-02T12:21:39;99745.50;;;16.28;48.50
75594;BME280;64176;49.156;7.810;2023-05-02T12:24:24;99747.53;;;15.93;49.17
75594;BME280;64176;49.156;7.810;2023-05-02T12:27:12;99746.16;;;16.49;48.08
75594;BME280;64176;49.156;7.810;2023-05-02T12:29:56;99744.34;;;16.55;47.07
75594;BME280;64176;49.156;7.810;2023-05-02T12:32:41;99737.34;;;16.62;46.41
75594;BME280;64176;49.156;7.810;2023-05-02T12:35:29;99734.81;;;16.53;46.77
75594;BME280;64176;49.156;7.810;2023-05-02T12:38:16;99735.50;;;16.71;46.96
75594;BME280;64176;49.156;7.810;2023-05-02T12:41:00;99747.44;;;16.05;48.06
75594;BME280;64176;49.156;7.810;2023-05-02T12:43:48;99748.72;;;16.53;47.46
75594;BME280;64176;49.156;7.810;2023-05-02T12:46:32;99750.81;;;16.18;47.72
75594;BME280;64176;49.156;7.810;2023-05-02T12:49:19;99749.25;;;16.00;48.39
75594;BME280;64176;49.156;7.810;2023-05-02T12:52:03;99737.00;;;16.08;47.99
75594;BME280;64176;49.156;7.810;2023-05-02T12:54:47;99738.63;;;16.20;47.55
75594;BME280;64176;49.156;7.810;2023-05-02T12:57:34;99748.94;;;16.33;47.79
75594;BME280;64176;49.156;7.810;2023-05-02T13:00:18;99751.47;;;16.39;47.04
75594;BME280;64176;49.156;7.810;2023-05-02T13:03:02;99742.00;;;17.09;45.35
75594;BME280;64176;49.156;7.810;2023-05-02T13:05:47;99737.97;;;16.84;45.41
75594;BME280;64176;49.156;7.810;2023-05-02T13:08:36;99739.19;;;16.51;42.29
75594;BME280;64176;49.156;7.810;2023-05-02T13:11:20;99735.50;;;16.71;42.33
75594;BME280;64176;49.156;7.810;2023-05-02T13:14:04;99735.59;;;16.59;43.11
75594;BME280;64176;49.156;7.810;2023-05-02T13:16:53;99750.56;;;16.45;44.44
75594;BME280;64176;49.156;7.810;2023-05-02T13:19:37;99744.16;;;16.77;46.29
75594;BME280;64176;49.156;7.810;2023-05-02T13:22:24;99758.72;;;16.10;47.28
75594;BME280;64176;49.156;7.810;2023-05-02T13:25:09;99754.34;;;16.12;47.58
75594;BME280;64176;49.156;7.810;2023-05-02T13:27:58;99757.16;;;15.88;46.88
75594;BME280;64176;49.156;7.810;2023-05-02T13:30:44;99761.13;;;16.28;45.44
75594;BME280;64176;49.156;7.810;2023-05-02T13:33:28;99754.06;;;16.39;44.73
75594;BME280;64176;49.156;7.810;2023-05-02T13:36:15;99755.94;;;16.27;45.02
75594;BME280;64176;49.156;7.810;2023-05-02T13:38:59;99756.13;;;16.91;45.05
75594;BME280;64176;49.156;7.810;2023-05-02T13:41:44;99739.28;;;17.17;43.60
75594;BME280;64176;49.156;7.810;2023-05-02T13:44:31;99738.88;;;16.80;43.00
75594;BME280;64176;49.156;7.810;2023-05-02T13:47:15;99744.81;;;16.91;41.73
75594;BME280;64176;49.156;7.810;2023-05-02T13:50:01;99740.16;;;17.16;41.87
75594;BME280;64176;49.156;7.810;2023-05-02T13:52:46;99729.41;;;17.35;38.67
75594;BME280;64176;49.156;7.810;2023-05-02T13:55:30;99722.84;;;17.70;37.72
75594;BME280;64176;49.156;7.810;2023-05-02T13:58:20;99711.44;;;17.13;39.02
75594;BME280;64176;49.156;7.810;2023-05-02T14:01:04;99727.03;;;17.22;41.14
75594;BME280;64176;49.156;7.810;2023-05-02T14:03:49;99734.59;;;17.38;40.81
75594;BME280;64176;49.156;7.810;2023-05-02T14:06:36;99745.53;;;17.05;39.15
75594;BME280;64176;49.156;7.810;2023-05-02T14:09:20;99743.53;;;16.49;38.76
75594;BME280;64176;49.156;7.810;2023-05-02T14:12:05;99736.22;;;16.83;39.21
75594;BME280;64176;49.156;7.810;2023-05-02T14:14:49;99745.72;;;16.90;38.31
75594;BME280;64176;49.156;7.810;2023-05-02T14:17:33;99742.63;;;16.54;39.03
75594;BME280;64176;49.156;7.810;2023-05-02T14:20:17;99737.50;;;17.20;38.45
75594;BME280;64176;49.156;7.810;2023-05-02T14:23:01;99741.16;;;17.05;37.95
75594;BME280;64176;49.156;7.810;2023-05-02T14:25:45;99744.81;;;16.92;37.33
75594;BME280;64176;49.156;7.810;2023-05-02T14:28:32;99729.84;;;17.05;38.02
75594;BME280;64176;49.156;7.810;2023-05-02T14:31:16;99739.34;;;17.12;36.33
75594;BME280;64176;49.156;7.810;2023-05-02T14:34:00;99732.88;;;17.37;36.67
75594;BME280;64176;49.156;7.810;2023-05-02T14:36:44;99725.91;;;17.36;36.20
75594;BME280;64176;49.156;7.810;2023-05-02T14:39:30;99724.19;;;17.35;37.56
75594;BME280;64176;49.156;7.810;2023-05-02T14:42:14;99731.56;;;17.69;39.04
75594;BME280;64176;49.156;7.810;2023-05-02T14:44:58;99738.50;;;17.71;39.63
75594;BME280;64176;49.156;7.810;2023-05-02T14:47:44;99736.13;;;17.55;39.98
75594;BME280;64176;49.156;7.810;2023-05-02T14:50:29;99732.84;;;17.39;39.38
75594;BME280;64176;49.156;7.810;2023-05-02T14:53:13;99732.41;;;17.71;39.88
75594;BME280;64176;49.156;7.810;2023-05-02T14:56:00;99735.75;;;17.79;38.90
75594;BME280;64176;49.156;7.810;2023-05-02T14:58:44;99733.13;;;17.80;37.10
75594;BME280;64176;49.156;7.810;2023-05-02T15:01:29;99732.53;;;17.60;36.06
75594;BME280;64176;49.156;7.810;2023-05-02T15:04:13;99721.66;;;17.89;37.50
75594;BME280;64176;49.156;7.810;2023-05-02T15:06:59;99738.94;;;17.41;36.10
75594;BME280;64176;49.156;7.810;2023-05-02T15:09:43;99741.63;;;17.35;36.99
75594;BME280;64176;49.156;7.810;2023-05-02T15:12:27;99752.44;;;17.09;36.86
75594;BME280;64176;49.156;7.810;2023-05-02T15:15:10;99741.88;;;17.18;37.64
75594;BME280;64176;49.156;7.810;2023-05-02T15:17:55;99744.06;;;17.47;39.19
75594;BME280;64176;49.156;7.810;2023-05-02T15:20:41;99744.31;;;17.30;38.36
75594;BME280;64176;49.156;7.810;2023-05-02T15:23:29;99737.22;;;17.38;38.32
75594;BME280;64176;49.156;7.810;2023-05-02T15:26:13;99739.72;;;16.82;37.40
75594;BME280;64176;49.156;7.810;2023-05-02T15:28:57;99748.72;;;17.25;38.57
75594;BME280;64176;49.156;7.810;2023-05-02T15:31:41;99749.13;;;16.96;38.85
75594;BME280;64176;49.156;7.810;2023-05-02T15:34:28;99737.94;;;16.85;39.83